createdAt,value
2017-09-01T00:00:29.225Z,16.33
2017-09-01T00:01:43.376Z,16.45
2017-09-01T00:02:45.268Z,16.48
2017-09-01T00:03:47.161Z,16.45
2017-09-01T00:04:49.044Z,16.50
2017-09-01T00:05:50.860Z,16.50
2017-09-01T00:06:52.691Z,16.43
2017-09-01T00:07:54.571Z,16.43
2017-09-01T00:08:56.413Z,16.42
2017-09-01T00:09:58.242Z,16.46
2017-09-01T00:11:12.394Z,16.50
2017-09-01T00:12:14.275Z,16.49
2017-09-01T00:13:16.167Z,16.43
2017-09-01T00:14:18.050Z,16.39
2017-09-01T00:15:19.877Z,16.25
2017-09-01T00:16:21.695Z,16.12
2017-09-01T00:17:23.577Z,16.00
2017-09-01T00:18:25.459Z,16.02
2017-09-01T00:19:27.341Z,15.97
2017-09-01T00:20:41.491Z,16.01
2017-09-01T00:21:43.384Z,15.97
2017-09-01T00:22:45.275Z,15.86
2017-09-01T00:23:47.171Z,15.83
2017-09-01T00:24:48.992Z,15.90
2017-09-01T00:25:50.809Z,15.94
2017-09-01T00:26:52.690Z,16.05
2017-09-01T00:27:54.570Z,16.17
2017-09-01T00:28:56.449Z,16.24
2017-09-01T00:30:10.601Z,16.21
2017-09-01T00:31:12.480Z,16.14
2017-09-01T00:32:14.364Z,16.24
2017-09-01T00:33:16.244Z,16.15
2017-09-01T00:34:18.071Z,16.30
2017-09-01T00:35:19.893Z,16.41
2017-09-01T00:36:21.774Z,16.52
2017-09-01T00:37:23.656Z,16.43
2017-09-01T00:38:25.540Z,16.48
2017-09-01T00:39:39.693Z,16.50
2017-09-01T00:40:41.577Z,16.56
2017-09-01T00:41:43.471Z,16.60
2017-09-01T00:42:45.352Z,16.56
2017-09-01T00:43:47.180Z,16.49
2017-09-01T00:44:49.013Z,16.57
2017-09-01T00:45:50.893Z,16.64
2017-09-01T00:46:52.776Z,16.57
2017-09-01T00:47:54.616Z,16.66
2017-09-01T00:49:08.767Z,16.63
2017-09-01T00:50:10.648Z,16.68
2017-09-01T00:51:12.529Z,16.76
2017-09-01T00:52:14.421Z,16.85
2017-09-01T00:53:16.248Z,16.86
2017-09-01T00:54:18.065Z,16.83
2017-09-01T00:55:19.958Z,16.83
2017-09-01T00:56:21.838Z,16.85
2017-09-01T00:57:23.730Z,16.86
2017-09-01T00:58:37.933Z,16.97
2017-09-01T00:59:39.815Z,16.91
2017-09-01T01:00:41.707Z,16.82
2017-09-01T01:01:43.590Z,16.85
2017-09-01T01:02:45.408Z,16.78
2017-09-01T01:03:47.236Z,16.68
2017-09-01T01:04:49.117Z,16.66
2017-09-01T01:05:50.998Z,16.61
2017-09-01T01:06:52.881Z,16.43
2017-09-01T01:08:07.094Z,16.60
2017-09-01T01:09:08.977Z,16.56
2017-09-01T01:10:10.860Z,16.53
2017-09-01T01:11:12.740Z,16.50
2017-09-01T01:12:14.562Z,16.48
2017-09-01T01:13:16.383Z,16.41
2017-09-01T01:14:18.266Z,16.34
2017-09-01T01:15:20.147Z,16.39
2017-09-01T01:16:22.029Z,16.34
2017-09-01T01:17:36.192Z,16.35
2017-09-01T01:18:38.075Z,16.28
2017-09-01T01:19:39.958Z,16.24
2017-09-01T01:20:41.854Z,16.21
2017-09-01T01:21:43.665Z,16.17
2017-09-01T01:22:45.484Z,16.20
2017-09-01T01:23:47.369Z,16.24
2017-09-01T01:24:49.259Z,16.25
2017-09-01T01:25:51.144Z,16.25
2017-09-01T01:27:05.300Z,16.27
2017-09-01T01:28:07.181Z,16.35
2017-09-01T01:29:09.075Z,16.21
2017-09-01T01:30:10.960Z,16.21
2017-09-01T01:31:12.780Z,16.05
2017-09-01T01:32:14.602Z,16.02
2017-09-01T01:33:16.488Z,16.02
2017-09-01T01:34:18.370Z,16.05
2017-09-01T01:35:20.261Z,16.08
2017-09-01T01:36:34.417Z,16.12
2017-09-01T01:37:36.295Z,16.20
2017-09-01T01:38:38.190Z,16.11
2017-09-01T01:39:40.072Z,16.17
2017-09-01T01:40:41.894Z,16.28
2017-09-01T01:41:43.715Z,16.27
2017-09-01T01:42:45.603Z,16.24
2017-09-01T01:43:47.485Z,16.27
2017-09-01T01:44:49.329Z,16.17
2017-09-01T01:46:03.521Z,16.24
2017-09-01T01:47:05.414Z,16.24
2017-09-01T01:48:07.306Z,16.15
2017-09-01T01:49:09.189Z,16.08
2017-09-01T01:50:11.013Z,16.15
2017-09-01T01:51:12.831Z,16.24
2017-09-01T01:52:14.712Z,16.34
2017-09-01T01:53:16.595Z,16.24
2017-09-01T01:54:18.487Z,16.34
2017-09-01T01:55:32.642Z,16.31
2017-09-01T01:56:34.524Z,16.27
2017-09-01T01:57:36.408Z,16.28
2017-09-01T01:58:38.293Z,16.21
2017-09-01T01:59:40.112Z,16.27
2017-09-01T02:00:41.929Z,16.28
2017-09-01T02:01:43.813Z,16.23
2017-09-01T02:02:45.697Z,16.17
2017-09-01T02:03:47.577Z,16.15
2017-09-01T02:05:01.731Z,16.05
2017-09-01T02:06:03.611Z,16.08
2017-09-01T02:07:05.492Z,16.07
2017-09-01T02:08:07.384Z,16.12
2017-09-01T02:09:09.214Z,16.17
2017-09-01T02:10:11.033Z,16.21
2017-09-01T02:11:12.917Z,16.14
2017-09-01T02:12:14.800Z,16.24
2017-09-01T02:13:16.692Z,16.14
2017-09-01T02:14:30.848Z,16.17
2017-09-01T02:15:32.733Z,16.23
2017-09-01T02:16:34.609Z,16.30
2017-09-01T02:17:36.494Z,16.42
2017-09-01T02:18:38.316Z,16.42
2017-09-01T02:19:40.134Z,16.35
2017-09-01T02:20:42.018Z,16.43
2017-09-01T02:21:43.902Z,16.45
2017-09-01T02:22:45.785Z,16.52
2017-09-01T02:23:59.941Z,16.57
2017-09-01T02:25:01.823Z,16.58
2017-09-01T02:26:03.715Z,16.67
2017-09-01T02:27:05.598Z,16.61
2017-09-01T02:28:07.420Z,16.63
2017-09-01T02:29:09.242Z,16.53
2017-09-01T02:30:11.135Z,16.52
2017-09-01T02:31:13.020Z,16.42
2017-09-01T02:32:14.902Z,16.43
2017-09-01T02:33:29.061Z,16.46
2017-09-01T02:34:30.937Z,16.48
2017-09-01T02:35:32.819Z,16.48
2017-09-01T02:36:34.712Z,16.49
2017-09-01T02:37:36.533Z,16.56
2017-09-01T02:38:38.354Z,16.41
2017-09-01T02:39:40.240Z,16.31
2017-09-01T02:40:42.122Z,16.23
2017-09-01T02:41:44.006Z,16.33
2017-09-01T02:42:58.183Z,16.35
2017-09-01T02:44:00.110Z,16.25
2017-09-01T02:45:01.966Z,16.35
2017-09-01T02:46:03.849Z,16.38
2017-09-01T02:47:05.667Z,16.43
2017-09-01T02:48:07.489Z,16.48
2017-09-01T02:49:09.377Z,16.48
2017-09-01T02:50:11.261Z,16.43
2017-09-01T02:51:13.144Z,16.43
2017-09-01T02:52:27.301Z,16.46
2017-09-01T02:53:29.181Z,16.48
2017-09-01T02:54:31.064Z,16.38
2017-09-01T02:55:32.958Z,16.33
2017-09-01T02:56:34.789Z,16.31
2017-09-01T02:57:36.611Z,16.28
2017-09-01T02:58:38.492Z,16.38
2017-09-01T02:59:40.375Z,16.45
2017-09-01T03:00:42.269Z,16.33
2017-09-01T03:01:56.439Z,16.42
2017-09-01T03:02:58.323Z,16.25
2017-09-01T03:04:00.216Z,16.25
2017-09-01T03:05:02.100Z,16.15
2017-09-01T03:06:03.920Z,16.05
2017-09-01T03:07:05.742Z,15.94
2017-09-01T03:08:07.627Z,15.87
2017-09-01T03:09:09.509Z,15.76
2017-09-01T03:10:11.395Z,15.75
2017-09-01T03:11:25.552Z,15.68
2017-09-01T03:12:27.434Z,15.65
2017-09-01T03:13:29.326Z,15.56
2017-09-01T03:14:31.208Z,15.54
2017-09-01T03:15:33.028Z,15.44
2017-09-01T03:16:34.859Z,15.35
2017-09-01T03:17:36.741Z,15.32
2017-09-01T03:18:38.624Z,15.34
2017-09-01T03:19:40.506Z,15.21
2017-09-01T03:20:54.664Z,15.34
2017-09-01T03:21:56.545Z,15.29
2017-09-01T03:22:58.428Z,15.31
2017-09-01T03:24:00.311Z,15.35
2017-09-01T03:25:02.129Z,15.41
2017-09-01T03:26:03.948Z,15.46
2017-09-01T03:27:05.837Z,15.46
2017-09-01T03:28:07.716Z,15.49
2017-09-01T03:29:09.612Z,15.47
2017-09-01T03:30:23.766Z,15.50
2017-09-01T03:31:25.644Z,15.65
2017-09-01T03:32:27.526Z,15.56
2017-09-01T03:33:29.413Z,15.57
2017-09-01T03:34:31.227Z,15.60
2017-09-01T03:35:33.047Z,15.51
2017-09-01T03:36:34.929Z,15.54
2017-09-01T03:37:36.813Z,15.62
2017-09-01T03:38:38.692Z,15.74
2017-09-01T03:39:52.849Z,15.69
2017-09-01T03:40:54.740Z,15.57
2017-09-01T03:41:56.633Z,15.69
2017-09-01T03:42:58.512Z,15.67
2017-09-01T03:44:00.330Z,15.60
2017-09-01T03:45:02.168Z,15.53
2017-09-01T03:46:04.052Z,15.56
2017-09-01T03:47:05.937Z,15.67
2017-09-01T03:48:07.829Z,15.71
2017-09-01T03:49:21.994Z,15.78
2017-09-01T03:50:23.884Z,15.76
2017-09-01T03:51:25.779Z,15.76
2017-09-01T03:52:27.681Z,15.62
2017-09-01T03:53:29.500Z,15.54
2017-09-01T03:54:31.318Z,15.59
2017-09-01T03:55:33.202Z,15.62
2017-09-01T03:56:35.096Z,15.72
2017-09-01T03:57:36.978Z,15.90
2017-09-01T03:58:51.152Z,15.83
2017-09-01T03:59:53.033Z,15.84
2017-09-01T04:00:54.952Z,15.83
2017-09-01T04:01:56.840Z,15.93
2017-09-01T04:02:58.670Z,15.82
2017-09-01T04:04:00.491Z,15.78
2017-09-01T04:05:02.383Z,15.92
2017-09-01T04:06:04.269Z,15.90
2017-09-01T04:07:06.150Z,15.84
2017-09-01T04:08:20.311Z,15.86
2017-09-01T04:09:22.217Z,15.83
2017-09-01T04:10:24.093Z,15.74
2017-09-01T04:11:25.979Z,15.75
2017-09-01T04:12:27.799Z,15.78
2017-09-01T04:13:29.620Z,15.71
2017-09-01T04:14:31.508Z,15.62
2017-09-01T04:15:33.397Z,15.68
2017-09-01T04:16:35.279Z,15.68
2017-09-01T04:17:49.435Z,15.68
2017-09-01T04:18:51.316Z,15.68
2017-09-01T04:19:53.209Z,15.74
2017-09-01T04:20:55.094Z,15.84
2017-09-01T04:21:56.927Z,15.89
2017-09-01T04:22:58.749Z,15.80
2017-09-01T04:24:00.633Z,15.86
2017-09-01T04:25:02.521Z,15.74
2017-09-01T04:26:04.405Z,15.71
2017-09-01T04:27:18.562Z,15.76
2017-09-01T04:28:20.457Z,15.78
2017-09-01T04:29:22.343Z,15.74
2017-09-01T04:30:24.227Z,15.64
2017-09-01T04:31:26.089Z,15.60
2017-09-01T04:32:27.929Z,15.59
2017-09-01T04:33:29.866Z,15.62
2017-09-01T04:34:31.750Z,15.59
2017-09-01T04:35:33.646Z,15.60
2017-09-01T04:36:47.803Z,15.57
2017-09-01T04:37:49.698Z,15.53
2017-09-01T04:38:51.590Z,15.46
2017-09-01T04:39:53.485Z,15.56
2017-09-01T04:40:55.305Z,15.59
2017-09-01T04:41:57.127Z,15.50
2017-09-01T04:42:59.013Z,15.56
2017-09-01T04:44:00.897Z,15.56
2017-09-01T04:45:02.787Z,15.54
2017-09-01T04:46:16.940Z,15.50
2017-09-01T04:47:18.822Z,15.41
2017-09-01T04:48:20.706Z,15.53
2017-09-01T04:49:22.601Z,15.54
2017-09-01T04:50:24.423Z,15.44
2017-09-01T04:51:26.242Z,15.60
2017-09-01T04:52:28.128Z,15.62
2017-09-01T04:53:30.016Z,15.54
2017-09-01T04:54:31.899Z,15.53
2017-09-01T04:55:46.058Z,15.49
2017-09-01T04:56:47.942Z,15.44
2017-09-01T04:57:49.828Z,15.54
2017-09-01T04:58:51.713Z,15.44
2017-09-01T04:59:53.536Z,15.47
2017-09-01T05:00:55.369Z,15.54
2017-09-01T05:01:57.254Z,15.51
2017-09-01T05:02:59.143Z,15.34
2017-09-01T05:04:01.027Z,15.39
2017-09-01T05:05:15.187Z,15.34
2017-09-01T05:06:17.072Z,15.31
2017-09-01T05:07:18.955Z,15.27
2017-09-01T05:08:20.840Z,15.34
2017-09-01T05:09:22.664Z,15.23
2017-09-01T05:10:24.484Z,15.13
2017-09-01T05:11:26.381Z,15.17
2017-09-01T05:12:28.268Z,14.99
2017-09-01T05:13:30.149Z,14.99
2017-09-01T05:14:44.317Z,14.96
2017-09-01T05:15:46.199Z,14.96
2017-09-01T05:16:48.091Z,14.84
2017-09-01T05:17:49.975Z,15.01
2017-09-01T05:18:51.799Z,14.96
2017-09-01T05:19:53.625Z,15.10
2017-09-01T05:20:55.509Z,15.07
2017-09-01T05:21:57.399Z,15.06
2017-09-01T05:22:59.281Z,15.10
2017-09-01T05:24:13.439Z,14.95
2017-09-01T05:25:15.333Z,15.01
2017-09-01T05:26:17.215Z,15.01
2017-09-01T05:27:19.099Z,15.03
2017-09-01T05:28:20.933Z,15.07
2017-09-01T05:29:22.758Z,15.13
2017-09-01T05:30:24.645Z,15.14
2017-09-01T05:31:26.528Z,15.23
2017-09-01T05:32:28.413Z,15.27
2017-09-01T05:33:42.572Z,15.27
2017-09-01T05:34:44.464Z,15.20
2017-09-01T05:35:46.356Z,15.20
2017-09-01T05:36:48.244Z,15.23
2017-09-01T05:37:50.067Z,15.27
2017-09-01T05:38:51.892Z,15.27
2017-09-01T05:39:53.776Z,15.31
2017-09-01T05:40:55.661Z,15.28
2017-09-01T05:41:57.555Z,15.23
2017-09-01T05:43:11.717Z,15.28
2017-09-01T05:44:13.595Z,15.34
2017-09-01T05:45:15.487Z,15.34
2017-09-01T05:46:17.372Z,15.28
2017-09-01T05:47:19.197Z,15.21
2017-09-01T05:48:21.024Z,15.31
2017-09-01T05:49:22.911Z,15.27
2017-09-01T05:50:24.796Z,15.31
2017-09-01T05:51:26.691Z,15.35
2017-09-01T05:52:40.903Z,15.59
2017-09-01T05:53:42.785Z,15.56
2017-09-01T05:54:44.668Z,15.51
2017-09-01T05:55:46.565Z,15.64
2017-09-01T05:56:48.393Z,15.64
2017-09-01T05:57:50.219Z,15.68
2017-09-01T05:58:52.105Z,15.68
2017-09-01T05:59:53.987Z,15.59
2017-09-01T06:00:55.882Z,15.65
2017-09-01T06:02:10.042Z,15.62
2017-09-01T06:03:11.923Z,15.57
2017-09-01T06:04:13.810Z,15.62
2017-09-01T06:05:15.694Z,15.67
2017-09-01T06:06:17.537Z,15.67
2017-09-01T06:07:19.353Z,15.65
2017-09-01T06:08:21.252Z,15.53
2017-09-01T06:09:23.141Z,15.51
2017-09-01T06:10:25.045Z,15.41
2017-09-01T06:11:39.199Z,15.32
2017-09-01T06:12:41.084Z,15.35
2017-09-01T06:13:42.977Z,15.27
2017-09-01T06:14:44.864Z,15.17
2017-09-01T06:15:46.699Z,15.06
2017-09-01T06:16:48.527Z,14.91
2017-09-01T06:17:50.414Z,14.86
2017-09-01T06:18:52.299Z,14.75
2017-09-01T06:19:54.218Z,14.73
2017-09-01T06:21:08.345Z,14.62
2017-09-01T06:22:10.228Z,14.60
2017-09-01T06:23:12.113Z,14.54
2017-09-01T06:24:13.999Z,14.52
2017-09-01T06:25:15.822Z,14.52
2017-09-01T06:26:17.647Z,14.46
2017-09-01T06:27:19.533Z,14.57
2017-09-01T06:28:21.382Z,14.55
2017-09-01T06:29:23.216Z,14.61
2017-09-01T06:30:37.364Z,14.64
2017-09-01T06:31:39.245Z,14.64
2017-09-01T06:32:41.130Z,14.54
2017-09-01T06:33:43.015Z,14.55
2017-09-01T06:34:44.836Z,14.46
2017-09-01T06:35:46.672Z,14.51
2017-09-01T06:36:48.552Z,14.72
2017-09-01T06:37:50.440Z,14.57
2017-09-01T06:38:52.322Z,14.47
2017-09-01T06:40:06.484Z,14.45
2017-09-01T06:41:08.370Z,14.55
2017-09-01T06:42:10.253Z,14.47
2017-09-01T06:43:12.138Z,14.42
2017-09-01T06:44:13.961Z,14.42
2017-09-01T06:45:15.783Z,14.45
2017-09-01T06:46:17.669Z,14.60
2017-09-01T06:47:19.554Z,14.75
2017-09-01T06:48:21.447Z,14.73
2017-09-01T06:49:35.607Z,14.88
2017-09-01T06:50:37.489Z,14.78
2017-09-01T06:51:39.380Z,14.60
2017-09-01T06:52:41.279Z,14.37
2017-09-01T06:53:43.102Z,14.36
2017-09-01T06:54:44.926Z,14.40
2017-09-01T06:55:46.813Z,14.46
2017-09-01T06:56:48.697Z,14.60
2017-09-01T06:57:50.578Z,14.80
2017-09-01T06:59:04.739Z,14.80
2017-09-01T07:00:06.619Z,14.84
2017-09-01T07:01:08.512Z,14.80
2017-09-01T07:02:10.396Z,14.64
2017-09-01T07:03:12.217Z,14.55
2017-09-01T07:04:14.043Z,14.58
2017-09-01T07:05:15.866Z,14.43
2017-09-01T07:06:17.690Z,14.51
2017-09-01T07:07:19.512Z,14.47
2017-09-01T07:08:33.676Z,14.58
2017-09-01T07:09:35.561Z,14.62
2017-09-01T07:10:37.456Z,14.64
2017-09-01T07:11:39.354Z,14.61
2017-09-01T07:12:41.200Z,14.77
2017-09-01T07:13:43.023Z,14.88
2017-09-01T07:14:44.908Z,14.88
2017-09-01T07:15:46.795Z,14.94
2017-09-01T07:16:48.698Z,14.89
2017-09-01T07:18:02.840Z,14.80
2017-09-01T07:19:04.725Z,14.78
2017-09-01T07:20:06.617Z,14.75
2017-09-01T07:21:08.496Z,14.70
2017-09-01T07:22:10.320Z,14.72
2017-09-01T07:23:12.142Z,14.68
2017-09-01T07:24:14.028Z,14.78
2017-09-01T07:25:15.917Z,14.69
2017-09-01T07:26:17.812Z,14.68
2017-09-01T07:27:32.022Z,14.77
2017-09-01T07:28:33.924Z,14.80
2017-09-01T07:29:35.808Z,14.86
2017-09-01T07:30:37.700Z,14.94
2017-09-01T07:31:39.522Z,14.94
2017-09-01T07:32:41.350Z,15.01
2017-09-01T07:33:43.235Z,15.02
2017-09-01T07:34:45.122Z,14.96
2017-09-01T07:35:47.017Z,14.94
2017-09-01T07:37:01.181Z,14.92
2017-09-01T07:38:03.069Z,14.96
2017-09-01T07:39:05.211Z,14.99
2017-09-01T07:40:07.066Z,14.98
2017-09-01T07:41:08.892Z,15.06
2017-09-01T07:42:10.722Z,15.02
2017-09-01T07:43:12.621Z,14.96
2017-09-01T07:44:14.508Z,14.81
2017-09-01T07:45:16.403Z,14.91
2017-09-01T07:46:30.565Z,14.88
2017-09-01T07:47:32.446Z,14.86
2017-09-01T07:48:34.351Z,14.98
2017-09-01T07:49:36.229Z,14.96
2017-09-01T07:50:38.053Z,14.98
2017-09-01T07:51:39.886Z,15.10
2017-09-01T07:52:41.776Z,15.17
2017-09-01T07:53:43.660Z,15.10
2017-09-01T07:54:45.558Z,15.13
2017-09-01T07:55:59.770Z,15.17
2017-09-01T07:57:01.656Z,15.28
2017-09-01T07:58:03.542Z,15.23
2017-09-01T07:59:05.428Z,15.16
2017-09-01T08:00:07.265Z,15.10
2017-09-01T08:01:09.088Z,14.96
2017-09-01T08:02:10.979Z,15.11
2017-09-01T08:03:12.865Z,15.07
2017-09-01T08:04:14.766Z,14.99
2017-09-01T08:05:28.923Z,14.92
2017-09-01T08:06:30.809Z,14.98
2017-09-01T08:07:32.708Z,14.92
2017-09-01T08:08:34.599Z,14.96
2017-09-01T08:09:36.426Z,15.06
2017-09-01T08:10:38.250Z,15.09
2017-09-01T08:11:40.144Z,15.17
2017-09-01T08:12:42.033Z,15.10
2017-09-01T08:13:43.920Z,15.20
2017-09-01T08:14:58.083Z,15.25
2017-09-01T08:15:59.971Z,15.34
2017-09-01T08:17:01.858Z,15.32
2017-09-01T08:18:03.750Z,15.25
2017-09-01T08:19:05.575Z,15.34
2017-09-01T08:20:07.401Z,15.28
2017-09-01T08:21:09.289Z,15.27
2017-09-01T08:22:11.178Z,15.28
2017-09-01T08:23:13.066Z,15.28
2017-09-01T08:24:27.230Z,15.27
2017-09-01T08:25:29.119Z,15.32
2017-09-01T08:26:31.008Z,15.27
2017-09-01T08:27:32.897Z,15.29
2017-09-01T08:28:34.721Z,15.10
2017-09-01T08:29:36.547Z,15.13
2017-09-01T08:30:38.436Z,15.11
2017-09-01T08:31:40.322Z,15.17
2017-09-01T08:32:42.221Z,15.19
2017-09-01T08:33:56.380Z,15.16
2017-09-01T08:34:58.266Z,15.23
2017-09-01T08:36:00.155Z,15.32
2017-09-01T08:37:02.045Z,15.46
2017-09-01T08:38:03.893Z,15.50
2017-09-01T08:39:05.717Z,15.43
2017-09-01T08:40:07.606Z,15.51
2017-09-01T08:41:09.496Z,15.47
2017-09-01T08:42:11.384Z,15.62
2017-09-01T08:43:25.594Z,15.53
2017-09-01T08:44:27.478Z,15.38
2017-09-01T08:45:29.371Z,15.32
2017-09-01T08:46:31.274Z,15.39
2017-09-01T08:47:33.099Z,15.35
2017-09-01T08:48:34.923Z,15.41
2017-09-01T08:49:36.817Z,15.46
2017-09-01T08:50:38.710Z,15.46
2017-09-01T08:51:40.613Z,15.51
2017-09-01T08:52:54.770Z,15.44
2017-09-01T08:53:56.655Z,15.56
2017-09-01T08:54:58.540Z,15.51
2017-09-01T08:56:00.433Z,15.50
2017-09-01T08:57:02.259Z,15.32
2017-09-01T08:58:04.086Z,15.35
2017-09-01T08:59:05.973Z,15.35
2017-09-01T09:00:07.861Z,15.41
2017-09-01T09:01:09.745Z,15.50
2017-09-01T09:02:23.955Z,15.50
2017-09-01T09:03:25.840Z,15.60
2017-09-01T09:04:27.737Z,15.51
2017-09-01T09:05:29.631Z,15.67
2017-09-01T09:06:31.457Z,15.72
2017-09-01T09:07:33.281Z,15.72
2017-09-01T09:08:35.179Z,15.75
2017-09-01T09:09:37.068Z,15.71
2017-09-01T09:10:38.958Z,15.65
2017-09-01T09:11:53.114Z,15.71
2017-09-01T09:12:55.000Z,15.68
2017-09-01T09:13:56.887Z,15.71
2017-09-01T09:14:58.779Z,15.72
2017-09-01T09:16:00.614Z,15.64
2017-09-01T09:17:02.431Z,15.65
2017-09-01T09:18:04.317Z,15.64
2017-09-01T09:19:06.216Z,15.74
2017-09-01T09:20:08.099Z,15.71
2017-09-01T09:21:22.269Z,15.64
2017-09-01T09:22:24.148Z,15.54
2017-09-01T09:23:26.036Z,15.51
2017-09-01T09:24:27.923Z,15.49
2017-09-01T09:25:29.748Z,15.34
2017-09-01T09:26:31.583Z,15.43
2017-09-01T09:27:33.471Z,15.43
2017-09-01T09:28:35.358Z,15.41
2017-09-01T09:29:37.243Z,15.59
2017-09-01T09:30:51.406Z,15.68
2017-09-01T09:31:53.289Z,15.65
2017-09-01T09:32:55.175Z,15.72
2017-09-01T09:33:57.060Z,15.75
2017-09-01T09:34:58.884Z,15.83
2017-09-01T09:36:00.709Z,15.96
2017-09-01T09:37:02.608Z,16.00
2017-09-01T09:38:04.484Z,16.00
2017-09-01T09:39:06.370Z,16.02
2017-09-01T09:40:20.533Z,15.90
2017-09-01T09:41:22.420Z,15.89
2017-09-01T09:42:24.315Z,15.82
2017-09-01T09:43:26.204Z,15.76
2017-09-01T09:44:28.040Z,15.76
2017-09-01T09:45:29.876Z,15.74
2017-09-01T09:46:31.762Z,15.65
2017-09-01T09:47:33.649Z,15.62
2017-09-01T09:48:35.538Z,15.56
2017-09-01T09:49:49.698Z,15.57
2017-09-01T09:50:51.583Z,15.51
2017-09-01T09:51:53.467Z,15.59
2017-09-01T09:52:55.365Z,15.67
2017-09-01T09:53:57.204Z,15.65
2017-09-01T09:54:59.028Z,15.67
2017-09-01T09:56:00.855Z,15.76
2017-09-01T09:57:02.680Z,15.72
2017-09-01T09:58:04.513Z,15.67
2017-09-01T09:59:18.677Z,15.62
2017-09-01T10:00:20.564Z,15.57
2017-09-01T10:01:22.455Z,15.56
2017-09-01T10:02:24.337Z,15.51
2017-09-01T10:03:26.161Z,15.56
2017-09-01T10:04:27.984Z,15.72
2017-09-01T10:05:29.876Z,15.69
2017-09-01T10:06:31.765Z,15.71
2017-09-01T10:07:33.654Z,15.51
2017-09-01T10:08:47.825Z,15.53
2017-09-01T10:09:49.717Z,15.53
2017-09-01T10:10:51.604Z,15.64
2017-09-01T10:11:53.492Z,15.69
2017-09-01T10:12:55.318Z,15.68
2017-09-01T10:13:57.155Z,15.59
2017-09-01T10:14:59.045Z,15.59
2017-09-01T10:16:00.930Z,15.64
2017-09-01T10:17:02.831Z,15.62
2017-09-01T10:18:16.993Z,15.57
2017-09-01T10:19:18.876Z,15.69
2017-09-01T10:20:20.771Z,15.83
2017-09-01T10:21:22.661Z,15.97
2017-09-01T10:22:24.485Z,15.93
2017-09-01T10:23:26.320Z,15.83
2017-09-01T10:24:28.208Z,15.78
2017-09-01T10:25:30.095Z,15.74
2017-09-01T10:26:31.989Z,15.67
2017-09-01T10:27:46.151Z,15.54
2017-09-01T10:28:48.034Z,15.57
2017-09-01T10:29:50.020Z,15.60
2017-09-01T10:30:51.908Z,15.60
2017-09-01T10:31:53.733Z,15.59
2017-09-01T10:32:55.560Z,15.64
2017-09-01T10:33:57.447Z,15.57
2017-09-01T10:34:59.351Z,15.59
2017-09-01T10:36:01.264Z,15.57
2017-09-01T10:37:15.425Z,15.71
2017-09-01T10:38:17.314Z,15.71
2017-09-01T10:39:19.198Z,15.94
2017-09-01T10:40:21.087Z,15.96
2017-09-01T10:41:22.911Z,15.75
2017-09-01T10:42:24.733Z,15.60
2017-09-01T10:43:26.631Z,15.43
2017-09-01T10:44:28.520Z,15.34
2017-09-01T10:45:30.409Z,15.38
2017-09-01T10:46:44.584Z,15.25
2017-09-01T10:47:46.452Z,15.34
2017-09-01T10:48:48.347Z,15.27
2017-09-01T10:49:50.233Z,15.31
2017-09-01T10:50:52.065Z,15.34
2017-09-01T10:51:53.905Z,15.38
2017-09-01T10:52:55.783Z,15.39
2017-09-01T10:53:57.668Z,15.31
2017-09-01T10:54:59.558Z,15.46
2017-09-01T10:56:13.729Z,15.53
2017-09-01T10:57:15.614Z,15.59
2017-09-01T10:58:17.499Z,15.49
2017-09-01T10:59:19.385Z,15.54
2017-09-01T11:00:21.222Z,15.50
2017-09-01T11:01:23.048Z,15.51
2017-09-01T11:02:24.936Z,15.50
2017-09-01T11:03:26.825Z,15.34
2017-09-01T11:04:28.711Z,15.13
2017-09-01T11:05:42.871Z,14.94
2017-09-01T11:06:44.766Z,14.88
2017-09-01T11:07:46.662Z,14.92
2017-09-01T11:08:48.563Z,14.96
2017-09-01T11:09:50.377Z,15.09
2017-09-01T11:10:52.203Z,15.28
2017-09-01T11:11:54.092Z,15.25
2017-09-01T11:12:55.980Z,15.34
2017-09-01T11:13:57.877Z,15.32
2017-09-01T11:15:12.097Z,15.29
2017-09-01T11:16:13.983Z,15.35
2017-09-01T11:17:15.880Z,15.34
2017-09-01T11:18:17.769Z,15.49
2017-09-01T11:19:19.597Z,15.54
2017-09-01T11:20:21.421Z,15.47
2017-09-01T11:21:23.313Z,15.47
2017-09-01T11:22:25.199Z,15.35
2017-09-01T11:23:27.086Z,15.39
2017-09-01T11:24:41.247Z,15.34
2017-09-01T11:25:43.130Z,15.46
2017-09-01T11:26:45.018Z,15.49
2017-09-01T11:27:46.907Z,15.51
2017-09-01T11:28:48.734Z,15.47
2017-09-01T11:29:50.569Z,15.41
2017-09-01T11:30:52.456Z,15.39
2017-09-01T11:31:54.345Z,15.39
2017-09-01T11:32:56.231Z,15.14
2017-09-01T11:34:10.395Z,14.99
2017-09-01T11:35:12.280Z,14.88
2017-09-01T11:36:14.168Z,14.92
2017-09-01T11:37:16.055Z,14.91
2017-09-01T11:38:17.880Z,14.89
2017-09-01T11:39:19.703Z,14.86
2017-09-01T11:40:21.591Z,14.84
2017-09-01T11:41:23.479Z,14.80
2017-09-01T11:42:25.367Z,14.78
2017-09-01T11:43:39.529Z,14.64
2017-09-01T11:44:41.413Z,14.70
2017-09-01T11:45:43.299Z,14.70
2017-09-01T11:46:45.184Z,14.78
2017-09-01T11:47:47.019Z,14.72
2017-09-01T11:48:48.846Z,14.78
2017-09-01T11:49:50.734Z,14.88
2017-09-01T11:50:52.631Z,14.75
2017-09-01T11:51:54.524Z,14.81
2017-09-01T11:53:08.681Z,15.02
2017-09-01T11:54:10.567Z,15.01
2017-09-01T11:55:12.466Z,15.03
2017-09-01T11:56:14.344Z,14.99
2017-09-01T11:57:16.167Z,15.09
2017-09-01T11:58:17.995Z,15.13
2017-09-01T11:59:19.885Z,14.98
2017-09-01T12:00:21.771Z,14.89
2017-09-01T12:01:23.658Z,14.88
2017-09-01T12:02:37.817Z,14.78
2017-09-01T12:03:39.703Z,14.81
2017-09-01T12:04:41.591Z,14.88
2017-09-01T12:05:43.480Z,14.75
2017-09-01T12:06:45.317Z,14.75
2017-09-01T12:07:47.141Z,14.68
2017-09-01T12:08:49.029Z,14.69
2017-09-01T12:09:50.918Z,14.75
2017-09-01T12:10:52.814Z,14.73
2017-09-01T12:12:06.974Z,14.72
2017-09-01T12:13:08.856Z,14.83
2017-09-01T12:14:10.935Z,14.95
2017-09-01T12:15:12.831Z,14.92
2017-09-01T12:16:14.655Z,14.98
2017-09-01T12:17:16.480Z,15.01
2017-09-01T12:18:18.372Z,15.07
2017-09-01T12:19:20.265Z,15.10
2017-09-01T12:20:22.162Z,15.09
2017-09-01T12:21:36.328Z,15.01
2017-09-01T12:22:38.246Z,14.99
2017-09-01T12:23:40.132Z,15.01
2017-09-01T12:24:42.020Z,14.99
2017-09-01T12:25:43.846Z,14.99
2017-09-01T12:26:45.671Z,15.10
2017-09-01T12:27:47.563Z,15.14
2017-09-01T12:28:49.462Z,15.03
2017-09-01T12:29:51.348Z,15.11
2017-09-01T12:31:05.508Z,14.89
2017-09-01T12:32:07.403Z,14.99
2017-09-01T12:33:09.282Z,14.81
2017-09-01T12:34:11.457Z,14.91
2017-09-01T12:35:13.255Z,15.02
2017-09-01T12:36:15.087Z,14.99
2017-09-01T12:37:17.576Z,14.98
2017-09-01T12:38:19.443Z,14.89
2017-09-01T12:39:21.774Z,14.80
2017-09-01T12:40:36.115Z,14.61
2017-09-01T12:41:38.047Z,14.50
2017-09-01T12:42:40.000Z,14.46
2017-09-01T12:43:41.914Z,14.36
2017-09-01T12:44:43.740Z,14.29
2017-09-01T12:45:45.567Z,14.37
2017-09-01T12:46:47.982Z,14.42
2017-09-01T12:47:49.923Z,14.40
2017-09-01T12:48:52.143Z,14.35
2017-09-01T12:50:06.412Z,14.24
2017-09-01T12:51:08.277Z,14.25
2017-09-01T12:52:10.719Z,14.32
2017-09-01T12:53:12.642Z,14.28
2017-09-01T12:54:14.468Z,14.32
2017-09-01T12:55:16.295Z,14.28
2017-09-01T12:56:18.189Z,14.28
2017-09-01T12:57:20.099Z,14.24
2017-09-01T12:58:22.192Z,14.29
2017-09-01T12:59:36.939Z,14.22
2017-09-01T13:00:38.876Z,14.25
2017-09-01T13:01:41.156Z,14.28
2017-09-01T13:02:43.416Z,14.35
2017-09-01T13:03:45.309Z,14.36
2017-09-01T13:04:47.128Z,14.45
2017-09-01T13:05:49.368Z,14.60
2017-09-01T13:06:51.259Z,14.64
2017-09-01T13:07:53.113Z,14.62
2017-09-01T13:09:07.821Z,14.72
2017-09-01T13:10:09.842Z,14.75
2017-09-01T13:11:11.726Z,14.75
2017-09-01T13:12:14.064Z,14.77
2017-09-01T13:13:16.221Z,14.77
2017-09-01T13:14:18.047Z,14.69
2017-09-01T13:15:19.989Z,14.62
2017-09-01T13:16:21.878Z,14.65
2017-09-01T13:17:24.192Z,14.46
2017-09-01T13:18:38.320Z,14.20
2017-09-01T13:19:40.208Z,14.10
2017-09-01T13:20:42.219Z,14.04
2017-09-01T13:21:44.107Z,13.96
2017-09-01T13:22:46.374Z,13.82
2017-09-01T13:23:48.170Z,13.66
2017-09-01T13:24:50.121Z,13.64
2017-09-01T13:25:52.013Z,13.64
2017-09-01T13:26:53.976Z,13.70
2017-09-01T13:28:08.134Z,13.59
2017-09-01T13:29:10.053Z,13.55
2017-09-01T13:30:11.932Z,13.51
2017-09-01T13:31:13.837Z,13.57
2017-09-01T13:32:15.691Z,13.51
2017-09-01T13:33:17.513Z,13.46
2017-09-01T13:34:19.894Z,13.38